Time;durP1;ratioP1;P1;durP2;ratioP2;P2;SDS_P1;SDS_P2;PMS_P1;PMS_P2;Temp;Humidity;BMP_temperature;BMP_pressure;BME280_temperature;BME280_humidity;BME280_pressure;Samples;Min_cycle;Max_cycle;Signal;HPM_P1;HPM_P2
2021/08/03 00:01:53;;;;;;;2.47;1.10;;;19.10;61.20;;;;;;5091228;28;20032;-71
2021/08/03 00:04:20;;;;;;;6.20;1.30;;;19.00;61.50;;;;;;5091512;28;20034;-71
2021/08/03 00:06:50;;;;;;;1.88;0.90;;;19.00;61.70;;;;;;5091582;28;20069;-71
2021/08/03 00:09:17;;;;;;;2.90;0.98;;;19.00;61.80;;;;;;5090356;28;20032;-71
2021/08/03 00:11:44;;;;;;;3.10;1.17;;;18.90;62.20;;;;;;5074221;28;20104;-71
2021/08/03 00:14:10;;;;;;;0.82;0.82;;;18.90;62.40;;;;;;5078388;28;20017;-71
2021/08/03 00:16:38;;;;;;;2.45;1.25;;;18.80;62.90;;;;;;5082830;28;20482;-71
2021/08/03 00:19:04;;;;;;;4.18;1.33;;;18.80;63.20;;;;;;5090114;28;20044;-71
2021/08/03 00:21:31;;;;;;;1.08;0.98;;;18.70;63.50;;;;;;5091332;28;20055;-71
2021/08/03 00:23:57;;;;;;;1.48;1.13;;;18.60;63.70;;;;;;5083415;28;20020;-71
2021/08/03 00:26:22;;;;;;;0.85;0.82;;;18.60;63.70;;;;;;5088899;28;20156;-71
2021/08/03 00:28:49;;;;;;;2.00;1.02;;;18.60;63.90;;;;;;5090542;28;20095;-71
2021/08/03 00:31:23;;;;;;;1.65;1.25;;;18.50;64.20;;;;;;5088872;28;20492;-72
2021/08/03 00:33:53;;;;;;;1.60;1.13;;;18.50;64.10;;;;;;5071041;28;20032;-71
2021/08/03 00:36:20;;;;;;;2.42;1.45;;;18.50;64.00;;;;;;5090850;28;20029;-71
2021/08/03 00:38:46;;;;;;;1.42;1.00;;;18.50;64.00;;;;;;5091361;28;20028;-71
2021/08/03 00:41:20;;;;;;;1.73;1.10;;;18.50;63.60;;;;;;5094977;28;20042;-71
2021/08/03 00:43:46;;;;;;;3.22;1.45;;;18.40;64.00;;;;;;5076258;28;20024;-71
2021/08/03 00:46:12;;;;;;;4.72;1.50;;;18.50;64.50;;;;;;5087637;28;20035;-72
2021/08/03 00:48:37;;;;;;;2.88;1.23;;;18.40;64.70;;;;;;5088470;28;20047;-72
2021/08/03 00:51:04;;;;;;;2.35;1.90;;;18.40;65.00;;;;;;5094723;28;20036;-70
2021/08/03 00:53:31;;;;;;;2.67;1.00;;;18.40;65.00;;;;;;5090014;28;20036;-72
2021/08/03 00:55:59;;;;;;;6.00;1.80;;;18.40;64.80;;;;;;5091789;28;20039;-71
2021/08/03 00:58:25;;;;;;;2.30;1.63;;;18.40;65.20;;;;;;5091080;28;20028;-72
2021/08/03 01:00:53;;;;;;;2.42;1.30;;;18.30;65.60;;;;;;5082212;28;20020;-71
2021/08/03 01:03:19;;;;;;;6.72;1.80;;;18.30;65.40;;;;;;5091727;28;20024;-71
2021/08/03 01:06:00;;;;;;;2.60;1.75;;;18.30;65.40;;;;;;5074252;28;20020;-72
2021/08/03 01:09:00;;;;;;;1.50;1.40;;;18.30;65.70;;;;;;5081563;28;20024;-72
2021/08/03 01:11:47;;;;;;;3.88;1.30;;;18.30;65.50;;;;;;5072639;28;20472;-72
2021/08/03 01:14:28;;;;;;;4.18;1.45;;;18.30;65.20;;;;;;5093751;28;20039;-72
2021/08/03 01:16:55;;;;;;;1.23;1.05;;;18.30;64.90;;;;;;5091758;28;20485;-72
2021/08/03 01:19:37;;;;;;;4.20;1.50;;;18.30;64.60;;;;;;5075137;28;20123;-72
2021/08/03 01:22:27;;;;;;;2.50;1.65;;;18.20;65.10;;;;;;5092751;28;20020;-72
2021/08/03 01:25:17;;;;;;;1.83;1.42;;;18.20;64.90;;;;;;5073831;28;20033;-72
2021/08/03 01:28:04;;;;;;;2.17;1.67;;;18.20;64.90;;;;;;5073828;28;20025;-72
2021/08/03 01:30:33;;;;;;;2.50;1.80;;;18.20;64.90;;;;;;5057561;28;20024;-72
2021/08/03 01:33:01;;;;;;;4.85;2.53;;;18.20;65.20;;;;;;5083815;28;20112;-72
2021/08/03 01:35:29;;;;;;;2.65;1.80;;;18.10;65.70;;;;;;5089747;28;20020;-72
2021/08/03 01:37:59;;;;;;;6.30;2.10;;;18.10;66.10;;;;;;5090492;28;20108;-73
2021/08/03 01:40:27;;;;;;;3.38;2.35;;;18.10;66.10;;;;;;5073739;28;20517;-73
2021/08/03 01:42:53;;;;;;;4.53;2.10;;;18.10;66.50;;;;;;5069015;28;20124;-73
2021/08/03 01:45:19;;;;;;;3.90;2.30;;;18.10;66.30;;;;;;5085649;28;20039;-72
2021/08/03 01:47:45;;;;;;;4.38;2.30;;;18.10;66.50;;;;;;5093691;28;20362;-72
2021/08/03 01:50:12;;;;;;;8.73;2.05;;;18.10;66.30;;;;;;5056287;28;20040;-72
2021/08/03 01:52:39;;;;;;;5.22;1.90;;;18.10;66.10;;;;;;5075218;28;20096;-72
2021/08/03 01:55:09;;;;;;;5.97;2.00;;;18.10;65.80;;;;;;5091221;28;20020;-72
2021/08/03 01:57:42;;;;;;;3.47;1.98;;;18.10;65.60;;;;;;5093377;28;20107;-73
2021/08/03 02:00:08;;;;;;;3.00;2.00;;;18.10;65.70;;;;;;5075492;28;20021;-72
2021/08/03 02:02:34;;;;;;;2.40;1.75;;;18.10;65.60;;;;;;5087666;28;20521;-73
2021/08/03 02:05:01;;;;;;;4.05;2.13;;;18.10;65.50;;;;;;5090357;28;20036;-73
2021/08/03 02:07:27;;;;;;;3.38;2.22;;;18.00;65.50;;;;;;5092652;28;20061;-72
2021/08/03 02:09:55;;;;;;;6.40;1.70;;;18.00;65.40;;;;;;5055638;28;20028;-73
2021/08/03 02:12:21;;;;;;;2.30;1.70;;;18.00;65.40;;;;;;5055218;28;20175;-73
2021/08/03 02:14:47;;;;;;;2.45;1.90;;;18.00;65.30;;;;;;5059953;28;20483;-73
2021/08/03 02:17:21;;;;;;;2.33;1.70;;;18.00;65.20;;;;;;5093248;28;20043;-73
2021/08/03 02:19:48;;;;;;;3.65;1.90;;;17.90;65.30;;;;;;5092632;28;20016;-74
2021/08/03 02:22:14;;;;;;;6.25;2.05;;;17.90;65.40;;;;;;5091322;28;20085;-73
2021/08/03 02:24:41;;;;;;;2.00;1.52;;;17.90;65.30;;;;;;5083471;28;20028;-72
2021/08/03 02:27:08;;;;;;;2.33;1.75;;;17.90;65.20;;;;;;5092928;28;20020;-73
2021/08/03 02:29:37;;;;;;;4.28;1.73;;;17.80;65.20;;;;;;5092937;28;20026;-73
2021/08/03 02:32:27;;;;;;;2.53;1.80;;;17.80;65.60;;;;;;5091497;28;20512;-73
2021/08/03 02:35:09;;;;;;;2.80;1.70;;;17.80;65.50;;;;;;5073634;28;20032;-73
2021/08/03 02:37:43;;;;;;;1.42;1.33;;;17.80;65.50;;;;;;5091424;28;20030;-73
2021/08/03 02:40:10;;;;;;;2.58;1.75;;;17.80;65.60;;;;;;5072443;28;20029;-73
2021/08/03 02:42:38;;;;;;;4.25;1.50;;;17.80;65.50;;;;;;5084880;28;20081;-73
2021/08/03 02:45:05;;;;;;;1.85;1.40;;;17.80;65.60;;;;;;5078469;28;20035;-73
2021/08/03 02:47:42;;;;;;;3.45;1.45;;;17.80;65.70;;;;;;5086989;28;20449;-73
2021/08/03 02:50:09;;;;;;;2.72;1.40;;;17.80;66.00;;;;;;5077622;28;20482;-73
2021/08/03 02:52:38;;;;;;;1.70;1.60;;;17.80;65.70;;;;;;5071084;28;20067;-73
2021/08/03 02:55:28;;;;;;;3.00;1.73;;;17.80;65.80;;;;;;5083717;28;20436;-73
2021/08/03 02:58:03;;;;;;;1.58;1.48;;;17.80;65.70;;;;;;5090542;28;20490;-73
2021/08/03 03:00:33;;;;;;;3.75;1.52;;;17.80;65.70;;;;;;5079261;28;20029;-73
2021/08/03 03:03:04;;;;;;;2.60;1.90;;;17.80;65.60;;;;;;5086801;28;20031;-73
2021/08/03 03:05:34;;;;;;;3.47;1.52;;;17.80;65.60;;;;;;5089095;28;20086;-73
2021/08/03 03:08:05;;;;;;;2.67;1.83;;;17.70;65.70;;;;;;5053968;28;20414;-74
2021/08/03 03:10:35;;;;;;;3.17;1.67;;;17.70;66.00;;;;;;5083210;28;20456;-74
2021/08/03 03:13:08;;;;;;;2.05;1.45;;;17.70;66.10;;;;;;5076164;28;20016;-73
2021/08/03 03:15:34;;;;;;;1.90;1.40;;;17.70;66.10;;;;;;5058472;28;20024;-76
2021/08/03 03:18:02;;;;;;;3.45;1.55;;;17.70;65.80;;;;;;5071663;28;20104;-77
2021/08/03 03:20:29;;;;;;;3.67;1.70;;;17.70;65.90;;;;;;5071893;28;20025;-78
2021/08/03 03:22:56;;;;;;;2.30;1.58;;;17.70;65.90;;;;;;5067490;28;20031;-78
2021/08/03 03:25:28;;;;;;;3.15;1.88;;;17.70;65.90;;;;;;5082364;28;20468;-78
2021/08/03 03:27:58;;;;;;;3.45;1.90;;;17.70;66.30;;;;;;5091694;28;20027;-78
2021/08/03 03:30:25;;;;;;;4.25;2.25;;;17.70;66.10;;;;;;5091302;28;20027;-79
2021/08/03 03:32:53;;;;;;;1.92;1.65;;;17.70;66.00;;;;;;5090735;28;20477;-79
2021/08/03 03:35:20;;;;;;;4.78;1.92;;;17.70;66.00;;;;;;5084807;28;20024;-79
2021/08/03 03:37:47;;;;;;;5.82;1.63;;;17.70;66.20;;;;;;5078845;28;20370;-81
2021/08/03 03:40:20;;;;;;;3.40;2.03;;;17.70;66.20;;;;;;5090062;28;20081;-80
2021/08/03 03:42:49;;;;;;;2.67;1.75;;;17.60;66.60;;;;;;5083650;28;20031;-81
2021/08/03 03:45:16;;;;;;;2.42;1.90;;;17.60;66.50;;;;;;5073548;28;20032;-81
2021/08/03 03:47:50;;;;;;;4.57;1.67;;;17.60;66.40;;;;;;5073807;28;20388;-81
2021/08/03 03:50:26;;;;;;;2.42;1.77;;;17.60;66.50;;;;;;5080348;28;20025;-81
2021/08/03 03:53:05;;;;;;;5.60;1.73;;;17.60;66.50;;;;;;5041919;28;20057;-81
2021/08/03 03:55:33;;;;;;;3.63;1.92;;;17.60;66.60;;;;;;5030503;28;20029;-81
2021/08/03 03:58:00;;;;;;;2.83;1.98;;;17.60;66.50;;;;;;5031686;28;20028;-81
2021/08/03 04:00:28;;;;;;;4.65;1.80;;;17.60;66.50;;;;;;5031566;28;20053;-81
2021/08/03 04:02:55;;;;;;;3.10;1.77;;;17.60;66.50;;;;;;5044909;28;20021;-82
2021/08/03 04:05:22;;;;;;;2.05;1.55;;;17.60;66.70;;;;;;5050045;28;20037;-82
2021/08/03 04:07:50;;;;;;;4.43;1.77;;;17.60;66.80;;;;;;5046903;28;20022;-82
2021/08/03 04:10:18;;;;;;;2.00;1.63;;;17.60;66.90;;;;;;5031745;28;20395;-81
2021/08/03 04:12:45;;;;;;;2.10;1.63;;;17.60;67.00;;;;;;5037620;28;20033;-81
2021/08/03 04:15:12;;;;;;;4.15;1.63;;;17.60;66.80;;;;;;5041257;28;20080;-81
2021/08/03 04:17:37;;;;;;;3.50;1.65;;;17.60;67.20;;;;;;5055288;28;20031;-81
2021/08/03 04:20:04;;;;;;;7.35;2.17;;;17.70;67.20;;;;;;5034128;28;20021;-81
2021/08/03 04:22:29;;;;;;;2.30;1.70;;;17.70;67.20;;;;;;5044391;28;20083;-80
2021/08/03 04:24:55;;;;;;;5.38;1.65;;;17.70;67.20;;;;;;5053667;28;20033;-81
2021/08/03 04:27:21;;;;;;;5.68;1.67;;;17.70;67.10;;;;;;5036357;28;20041;-80
2021/08/03 04:29:47;;;;;;;2.47;1.73;;;17.70;67.20;;;;;;5051751;28;20086;-80
2021/08/03 04:32:12;;;;;;;4.93;1.65;;;17.80;67.20;;;;;;5054551;28;20052;-81
2021/08/03 04:34:38;;;;;;;2.90;1.63;;;17.80;67.40;;;;;;5040858;28;20033;-81
2021/08/03 04:37:04;;;;;;;2.75;2.00;;;17.80;67.30;;;;;;5050632;28;20029;-80
2021/08/03 04:39:30;;;;;;;2.45;1.80;;;17.90;67.60;;;;;;5048028;28;20021;-80
2021/08/03 04:41:56;;;;;;;2.28;1.60;;;17.90;67.70;;;;;;5035435;28;20075;-80
2021/08/03 04:44:22;;;;;;;4.68;2.13;;;17.90;67.40;;;;;;5045531;28;20024;-80
2021/08/03 04:46:48;;;;;;;2.38;1.50;;;18.00;67.50;;;;;;5051703;28;20414;-80
2021/08/03 04:49:13;;;;;;;4.80;1.98;;;18.10;67.60;;;;;;5053207;28;20112;-80
2021/08/03 04:51:39;;;;;;;2.05;1.80;;;18.10;67.50;;;;;;5058576;28;20036;-80
2021/08/03 04:54:05;;;;;;;2.65;1.70;;;18.20;67.40;;;;;;5075792;28;20090;-79
2021/08/03 04:56:31;;;;;;;2.17;1.60;;;18.30;67.20;;;;;;5094000;28;20016;-79
2021/08/03 04:58:56;;;;;;;7.40;1.85;;;18.30;67.00;;;;;;5094407;28;20029;-79
2021/08/03 05:01:22;;;;;;;4.45;1.65;;;18.30;66.80;;;;;;5094579;28;20031;-79
2021/08/03 05:03:48;;;;;;;2.65;1.80;;;18.30;66.50;;;;;;5090233;28;20024;-79
2021/08/03 05:06:14;;;;;;;4.47;1.60;;;18.40;66.10;;;;;;5074331;28;20029;-78
2021/08/03 05:08:39;;;;;;;2.72;2.03;;;18.40;66.00;;;;;;5082870;28;20481;-78
2021/08/03 05:11:05;;;;;;;5.60;1.90;;;18.50;66.40;;;;;;5094362;28;20032;-78
2021/08/03 05:13:31;;;;;;;4.25;2.20;;;18.50;65.40;;;;;;5087993;28;20038;-78
2021/08/03 05:15:56;;;;;;;10.18;3.55;;;18.50;65.40;;;;;;5075607;28;20115;-77
2021/08/03 05:18:22;;;;;;;4.45;2.20;;;18.60;65.50;;;;;;5093719;28;20020;-77
2021/08/03 05:20:48;;;;;;;2.95;1.98;;;18.60;65.10;;;;;;5094100;28;20103;-77
2021/08/03 05:23:13;;;;;;;2.60;2.13;;;18.60;65.10;;;;;;5075237;28;20499;-77
2021/08/03 05:25:39;;;;;;;3.42;1.85;;;18.60;65.30;;;;;;5092653;28;20078;-77
2021/08/03 05:28:05;;;;;;;5.57;1.95;;;18.70;65.20;;;;;;5093763;28;20099;-76
2021/08/03 05:30:31;;;;;;;4.45;1.92;;;18.70;65.40;;;;;;5075061;28;20115;-77
2021/08/03 05:32:56;;;;;;;5.18;2.33;;;18.80;65.50;;;;;;5081248;28;20466;-77
2021/08/03 05:35:22;;;;;;;4.70;1.98;;;18.80;65.60;;;;;;5093296;28;20023;-77
2021/08/03 05:37:48;;;;;;;2.92;1.80;;;18.90;65.60;;;;;;5067925;28;20108;-76
2021/08/03 05:40:14;;;;;;;3.10;2.20;;;18.90;65.40;;;;;;5093885;28;20020;-76
2021/08/03 05:42:41;;;;;;;2.50;1.83;;;19.00;65.40;;;;;;5074869;28;20111;-76
2021/08/03 05:45:07;;;;;;;6.80;2.05;;;19.00;65.30;;;;;;5093386;28;20028;-77
2021/08/03 05:47:34;;;;;;;4.40;2.58;;;19.10;65.40;;;;;;5093257;28;20028;-75
2021/08/03 05:49:59;;;;;;;4.15;2.30;;;19.10;65.20;;;;;;5055617;28;20047;-77
2021/08/03 05:52:25;;;;;;;6.28;2.85;;;19.10;65.40;;;;;;5065527;28;20398;-77
2021/08/03 05:54:51;;;;;;;4.22;2.83;;;19.20;65.20;;;;;;5074118;28;20385;-76
2021/08/03 05:57:16;;;;;;;4.22;2.50;;;19.20;65.10;;;;;;5093357;28;20031;-77
2021/08/03 05:59:42;;;;;;;3.90;2.47;;;19.30;65.00;;;;;;5093235;28;20032;-76
2021/08/03 06:02:08;;;;;;;3.72;2.80;;;19.30;65.10;;;;;;5093496;28;20020;-76
2021/08/03 06:04:34;;;;;;;5.95;3.90;;;19.40;64.90;;;;;;5090857;28;20077;-75
2021/08/03 06:07:02;;;;;;;6.03;3.72;;;19.40;64.80;;;;;;5086442;28;20026;-76
2021/08/03 06:09:28;;;;;;;5.78;3.67;;;19.50;64.60;;;;;;5071009;28;20108;-75
2021/08/03 06:11:57;;;;;;;6.57;3.25;;;19.50;64.40;;;;;;5089578;28;20111;-76
2021/08/03 06:14:35;;;;;;;8.32;3.88;;;19.60;64.60;;;;;;5073492;28;20079;-75
2021/08/03 06:17:07;;;;;;;6.25;3.22;;;19.60;64.50;;;;;;5089389;28;20074;-76
2021/08/03 06:19:50;;;;;;;8.60;4.57;;;19.70;64.70;;;;;;5078658;28;20012;-75
2021/08/03 06:22:17;;;;;;;9.68;5.05;;;19.70;64.50;;;;;;5093334;28;20028;-75
2021/08/03 06:24:47;;;;;;;14.60;8.18;;;19.80;64.40;;;;;;5092727;28;20389;-75
2021/08/03 06:27:16;;;;;;;15.65;7.70;;;19.80;64.00;;;;;;5092907;28;20027;-75
2021/08/03 06:29:43;;;;;;;13.45;6.95;;;19.90;63.90;;;;;;5089203;28;20024;-75
2021/08/03 06:32:10;;;;;;;13.82;7.82;;;19.90;63.80;;;;;;5092022;28;20489;-75
2021/08/03 06:34:42;;;;;;;18.23;8.02;;;20.00;63.50;;;;;;5085356;28;20035;-76
2021/08/03 06:37:09;;;;;;;16.92;8.82;;;20.00;63.50;;;;;;5082292;28;21774;-75
2021/08/03 06:39:35;;;;;;;20.08;8.60;;;20.10;63.30;;;;;;5072410;28;20082;-75
2021/08/03 06:42:31;;;;;;;12.60;7.40;;;20.20;63.10;;;;;;5087489;28;20026;-76
2021/08/03 06:45:04;;;;;;;12.50;7.40;;;20.20;62.20;;;;;;5074212;28;20032;-75
2021/08/03 06:48:01;;;;;;;13.82;7.70;;;20.40;61.70;;;;;;5091851;28;20055;-75
2021/08/03 06:50:34;;;;;;;17.98;8.70;;;20.40;61.40;;;;;;5090140;28;20024;-75
2021/08/03 06:53:01;;;;;;;9.40;6.27;;;20.50;60.80;;;;;;5087303;28;20054;-75
2021/08/03 06:55:32;;;;;;;10.43;6.28;;;20.50;61.70;;;;;;5091755;28;20062;-75
2021/08/03 06:58:04;;;;;;;11.27;6.63;;;20.60;62.20;;;;;;5092559;28;20012;-75
2021/08/03 07:00:38;;;;;;;11.80;7.22;;;20.70;61.30;;;;;;5092201;28;20028;-73
2021/08/03 07:03:09;;;;;;;11.18;6.97;;;20.70;61.10;;;;;;5072218;28;20024;-74
2021/08/03 07:05:45;;;;;;;10.80;6.57;;;20.80;61.50;;;;;;5072252;28;20032;-75
2021/08/03 07:08:12;;;;;;;16.02;8.15;;;20.90;61.40;;;;;;5080832;28;20023;-75
2021/08/03 07:10:38;;;;;;;13.40;7.78;;;21.00;60.40;;;;;;5092639;28;20021;-74
2021/08/03 07:13:05;;;;;;;18.83;8.60;;;21.10;60.10;;;;;;5091615;28;20034;-73
2021/08/03 07:15:31;;;;;;;14.88;9.05;;;21.20;60.70;;;;;;5092078;28;20024;-74
2021/08/03 07:17:59;;;;;;;16.58;9.95;;;21.30;60.10;;;;;;5081903;28;20017;-73
2021/08/03 07:20:24;;;;;;;16.63;9.23;;;21.50;60.00;;;;;;5072217;28;20381;-74
2021/08/03 07:22:51;;;;;;;17.85;10.00;;;21.60;60.00;;;;;;5078332;28;20016;-73
2021/08/03 07:25:18;;;;;;;16.35;8.80;;;21.80;60.50;;;;;;5084114;28;20028;-73
2021/08/03 07:27:43;;;;;;;15.50;9.60;;;22.00;60.70;;;;;;5083034;28;20020;-73
2021/08/03 07:30:10;;;;;;;17.85;9.82;;;22.20;60.20;;;;;;5072787;28;20031;-74
2021/08/03 07:32:37;;;;;;;18.52;10.27;;;22.40;59.70;;;;;;5086748;28;20042;-73
2021/08/03 07:35:05;;;;;;;19.35;11.23;;;22.60;60.50;;;;;;5060108;28;20023;-73
2021/08/03 07:37:32;;;;;;;19.55;11.05;;;22.90;59.80;;;;;;5087133;28;20103;-73
2021/08/03 07:39:58;;;;;;;25.70;11.00;;;23.10;58.80;;;;;;5082839;28;20030;-73
2021/08/03 07:42:24;;;;;;;19.33;11.23;;;23.30;57.90;;;;;;5091214;28;20031;-73
2021/08/03 07:44:50;;;;;;;17.70;10.38;;;23.40;57.10;;;;;;5073315;28;20389;-73
2021/08/03 07:47:16;;;;;;;13.25;8.60;;;23.60;57.20;;;;;;5091234;28;20042;-73
2021/08/03 07:49:43;;;;;;;19.65;8.73;;;23.80;57.00;;;;;;5091826;28;20028;-73
2021/08/03 07:52:08;;;;;;;16.45;9.95;;;23.90;57.70;;;;;;5083831;28;20131;-73
2021/08/03 07:54:34;;;;;;;20.63;11.63;;;24.10;57.40;;;;;;5071346;28;20529;-72
2021/08/03 07:57:00;;;;;;;20.70;11.90;;;24.30;56.70;;;;;;5071329;28;20028;-73
2021/08/03 07:59:26;;;;;;;19.45;10.65;;;24.50;54.40;;;;;;5061710;28;20058;-73
2021/08/03 08:01:52;;;;;;;14.23;9.68;;;24.60;55.60;;;;;;5091581;28;20470;-72
2021/08/03 08:04:17;;;;;;;16.17;9.27;;;24.70;55.20;;;;;;5089918;28;20034;-73
2021/08/03 08:06:43;;;;;;;13.50;7.93;;;24.80;54.60;;;;;;5073316;28;20074;-73
2021/08/03 08:09:09;;;;;;;13.77;7.40;;;24.90;53.90;;;;;;5091478;28;20137;-73
2021/08/03 08:11:34;;;;;;;12.27;7.28;;;25.00;53.90;;;;;;5090972;28;20021;-73
2021/08/03 08:14:00;;;;;;;12.07;6.03;;;25.00;53.60;;;;;;5090305;28;20473;-72
2021/08/03 08:16:26;;;;;;;9.55;5.65;;;25.00;53.80;;;;;;5091488;28;20099;-72
2021/08/03 08:18:52;;;;;;;9.02;5.88;;;25.10;53.90;;;;;;5091183;28;20048;-73
2021/08/03 08:21:17;;;;;;;12.88;6.28;;;25.10;51.80;;;;;;5091245;28;20039;-73
2021/08/03 08:23:43;;;;;;;9.73;6.40;;;25.10;51.90;;;;;;5091314;28;20032;-73
2021/08/03 08:26:09;;;;;;;10.27;6.65;;;25.20;52.50;;;;;;5091401;28;20032;-72
2021/08/03 08:28:35;;;;;;;10.65;6.15;;;25.10;51.90;;;;;;5073167;28;20036;-73
2021/08/03 08:31:00;;;;;;;8.15;5.53;;;25.10;52.00;;;;;;5090705;28;20500;-72
2021/08/03 08:33:26;;;;;;;8.68;5.13;;;25.10;52.60;;;;;;5088962;28;20024;-72
2021/08/03 08:35:52;;;;;;;6.13;4.10;;;25.10;52.70;;;;;;5065089;28;20036;-72
2021/08/03 08:38:18;;;;;;;7.00;4.13;;;25.10;51.90;;;;;;5078756;28;20016;-72
2021/08/03 08:40:44;;;;;;;9.95;4.78;;;25.20;52.30;;;;;;5090856;28;20096;-73
2021/08/03 08:43:16;;;;;;;9.35;4.53;;;25.10;50.40;;;;;;5090019;28;20047;-72
2021/08/03 08:45:43;;;;;;;6.45;3.75;;;25.10;49.70;;;;;;5086464;28;20044;-72
2021/08/03 08:48:13;;;;;;;4.50;2.83;;;25.00;50.50;;;;;;5071295;28;20435;-72
2021/08/03 08:50:39;;;;;;;7.28;3.20;;;25.00;50.60;;;;;;5086339;28;20437;-72
2021/08/03 08:53:05;;;;;;;5.45;2.85;;;25.00;50.70;;;;;;5075655;28;20518;-72
2021/08/03 08:55:31;;;;;;;5.82;2.78;;;25.00;51.20;;;;;;5052964;28;20074;-72
2021/08/03 08:57:57;;;;;;;5.30;2.67;;;24.90;51.10;;;;;;5053260;28;20027;-72
2021/08/03 09:00:24;;;;;;;5.05;2.90;;;24.90;51.20;;;;;;5072606;28;20424;-72
2021/08/03 09:02:53;;;;;;;6.32;3.67;;;24.90;50.30;;;;;;5083929;28;20020;-72
2021/08/03 09:05:39;;;;;;;19.23;5.03;;;24.90;50.80;;;;;;5075468;28;20032;-72
2021/08/03 09:08:06;;;;;;;3.60;2.50;;;24.80;49.90;;;;;;5094419;28;20031;-72
2021/08/03 09:10:37;;;;;;;6.03;3.33;;;24.80;50.70;;;;;;5094595;28;20024;-72
2021/08/03 09:13:04;;;;;;;4.82;3.15;;;24.80;50.60;;;;;;5075994;28;20020;-72
2021/08/03 09:15:31;;;;;;;5.50;3.33;;;24.70;50.60;;;;;;5084150;28;20020;-72
2021/08/03 09:18:17;;;;;;;5.93;3.20;;;24.70;49.80;;;;;;5078650;28;20008;-73
2021/08/03 09:20:47;;;;;;;5.22;2.60;;;24.70;49.70;;;;;;5087904;28;20024;-72
2021/08/03 09:23:13;;;;;;;3.85;2.60;;;24.60;48.60;;;;;;5075539;28;20012;-72
2021/08/03 09:25:51;;;;;;;6.68;2.80;;;24.60;49.50;;;;;;5087767;28;20079;-72
2021/08/03 09:28:17;;;;;;;7.43;3.00;;;24.70;50.70;;;;;;5056148;28;20371;-72
2021/08/03 09:30:42;;;;;;;4.05;2.80;;;24.70;50.00;;;;;;5092314;28;20115;-72
2021/08/03 09:33:08;;;;;;;8.18;4.18;;;24.70;50.70;;;;;;5094126;28;20024;-73
2021/08/03 09:35:34;;;;;;;7.55;3.75;;;24.80;49.90;;;;;;5085024;28;20027;-73
2021/08/03 09:38:00;;;;;;;9.15;4.32;;;24.80;50.00;;;;;;5090998;28;20012;-72
2021/08/03 09:40:30;;;;;;;7.95;4.32;;;24.90;49.20;;;;;;5093972;28;20485;-72
2021/08/03 09:42:58;;;;;;;11.75;4.82;;;24.90;49.80;;;;;;5075618;28;20406;-73
2021/08/03 09:45:25;;;;;;;7.82;4.03;;;25.00;49.60;;;;;;5075748;28;20051;-72
2021/08/03 09:47:54;;;;;;;8.88;4.00;;;25.10;49.70;;;;;;5084055;28;20465;-73
2021/08/03 09:50:20;;;;;;;6.35;3.47;;;25.20;49.70;;;;;;5055576;28;20489;-72
2021/08/03 09:52:48;;;;;;;8.27;4.07;;;25.30;49.20;;;;;;5073038;28;20075;-72
2021/08/03 09:55:15;;;;;;;11.00;4.60;;;25.40;49.30;;;;;;5082580;28;20369;-72
2021/08/03 09:57:43;;;;;;;7.78;3.67;;;25.50;49.50;;;;;;5076658;28;20028;-72
2021/08/03 10:00:34;;;;;;;6.28;2.90;;;25.60;49.30;;;;;;5078551;28;20024;-73
2021/08/03 10:03:06;;;;;;;6.78;3.00;;;25.90;49.80;;;;;;5063260;28;20031;-73
2021/08/03 10:05:34;;;;;;;5.15;2.80;;;26.10;49.70;;;;;;5055082;28;20108;-73
2021/08/03 10:08:00;;;;;;;7.63;3.95;;;26.30;49.40;;;;;;5073119;28;20481;-73
2021/08/03 10:10:26;;;;;;;6.10;3.90;;;26.50;47.90;;;;;;5079365;28;20055;-72
2021/08/03 10:12:52;;;;;;;9.10;3.45;;;26.60;48.00;;;;;;5086296;28;20115;-72
2021/08/03 10:15:18;;;;;;;7.35;3.70;;;26.80;47.20;;;;;;5093202;28;20542;-72
2021/08/03 10:17:43;;;;;;;13.63;4.13;;;27.00;46.70;;;;;;5076711;28;20012;-73
2021/08/03 10:20:12;;;;;;;6.88;4.10;;;27.10;46.10;;;;;;5072864;28;20024;-73
2021/08/03 10:22:57;;;;;;;6.00;2.92;;;27.20;44.00;;;;;;5081784;28;20064;-72
2021/08/03 10:25:40;;;;;;;8.05;2.55;;;27.30;45.20;;;;;;5062850;28;20487;-72
2021/08/03 10:28:22;;;;;;;5.43;2.73;;;27.40;44.40;;;;;;5072862;28;20012;-72
2021/08/03 10:30:49;;;;;;;3.60;2.22;;;27.40;44.40;;;;;;5099035;28;20023;-73
2021/08/03 10:33:37;;;;;;;6.22;2.42;;;27.50;44.40;;;;;;5112989;28;20102;-72
2021/08/03 10:36:03;;;;;;;4.35;2.85;;;27.60;44.40;;;;;;5082133;28;20020;-71
2021/08/03 10:38:29;;;;;;;4.95;2.53;;;27.70;43.30;;;;;;5092697;28;20074;-71
2021/08/03 10:41:08;;;;;;;7.93;2.55;;;27.80;43.30;;;;;;5089998;28;20024;-71
2021/08/03 10:43:34;;;;;;;5.60;1.95;;;27.90;43.60;;;;;;5071881;28;20024;-72
2021/08/03 10:46:06;;;;;;;2.42;1.88;;;27.90;41.70;;;;;;5092697;28;20032;-71
2021/08/03 10:48:38;;;;;;;2.97;2.20;;;27.90;41.80;;;;;;5091971;28;20024;-72
2021/08/03 10:51:15;;;;;;;2.65;1.90;;;28.00;42.20;;;;;;5074535;28;20074;-72
2021/08/03 10:54:08;;;;;;;2.78;1.70;;;28.00;42.20;;;;;;5091763;28;20592;-72
2021/08/03 10:56:58;;;;;;;2.45;1.70;;;28.00;42.70;;;;;;5092255;28;20081;-71
2021/08/03 10:59:41;;;;;;;3.58;2.05;;;28.20;42.90;;;;;;5092690;28;20440;-71
2021/08/03 11:02:13;;;;;;;3.50;1.98;;;28.20;42.00;;;;;;5091546;28;20457;-72
2021/08/03 11:04:42;;;;;;;3.88;1.92;;;28.30;41.70;;;;;;5092474;28;20157;-72
2021/08/03 11:07:27;;;;;;;2.72;1.90;;;28.20;40.50;;;;;;5092495;28;20020;-72
2021/08/03 11:10:08;;;;;;;2.55;1.70;;;28.20;39.70;;;;;;5075237;28;20025;-72
2021/08/03 11:12:44;;;;;;;2.25;1.60;;;28.10;39.30;;;;;;5071755;28;20025;-74
2021/08/03 11:15:22;;;;;;;5.78;1.92;;;28.10;38.60;;;;;;5073864;28;20382;-74
2021/08/03 11:18:10;;;;;;;2.38;1.75;;;28.00;38.30;;;;;;5073915;28;20028;-71
2021/08/03 11:20:36;;;;;;;2.05;1.45;;;28.00;39.40;;;;;;5091550;28;20020;-73
2021/08/03 11:23:47;;;;;;;1.85;1.35;;;28.00;38.60;;;;;;5091628;28;20531;-73
2021/08/03 11:26:19;;;;;;;1.73;1.50;;;28.10;39.10;;;;;;5090322;28;20043;-74
2021/08/03 11:28:57;;;;;;;2.70;1.30;;;28.20;38.60;;;;;;5091428;28;20111;-73
2021/08/03 11:31:55;;;;;;;2.45;1.00;;;28.30;39.00;;;;;;5091793;28;20424;-73
2021/08/03 11:34:25;;;;;;;1.40;1.20;;;28.40;38.50;;;;;;5091812;28;20032;-74
2021/08/03 11:37:12;;;;;;;2.38;1.40;;;28.50;38.00;;;;;;5092078;28;20023;-73
2021/08/03 11:39:48;;;;;;;2.00;1.60;;;28.60;37.50;;;;;;5091346;28;20095;-73
2021/08/03 11:42:14;;;;;;;1.27;1.17;;;28.60;36.50;;;;;;5091067;28;20423;-73
2021/08/03 11:44:43;;;;;;;2.28;1.50;;;28.80;36.80;;;;;;5074578;28;20428;-74
2021/08/03 11:47:12;;;;;;;6.18;1.52;;;28.80;35.60;;;;;;5091981;28;20028;-73
2021/08/03 11:49:46;;;;;;;2.00;1.23;;;28.90;34.50;;;;;;5074451;28;20032;-71
2021/08/03 11:52:23;;;;;;;2.13;1.33;;;29.00;35.10;;;;;;5092512;28;20489;-71
2021/08/03 11:54:55;;;;;;;2.30;1.02;;;29.10;33.20;;;;;;5091637;28;20020;-74
2021/08/03 11:57:25;;;;;;;1.45;1.30;;;29.10;33.20;;;;;;5092526;28;20020;-73
2021/08/03 12:00:11;;;;;;;3.60;1.17;;;29.20;33.50;;;;;;5092721;28;20077;-73
2021/08/03 12:02:39;;;;;;;1.58;1.10;;;29.30;34.00;;;;;;5074417;28;20024;-73
2021/08/03 12:05:18;;;;;;;1.27;1.17;;;29.40;31.60;;;;;;5092383;28;20028;-74
2021/08/03 12:07:57;;;;;;;2.15;1.05;;;29.50;32.30;;;;;;5092350;28;20046;-73
2021/08/03 12:10:29;;;;;;;2.38;1.13;;;29.60;32.80;;;;;;5092249;28;20028;-73
2021/08/03 12:12:54;;;;;;;1.90;1.15;;;29.70;32.70;;;;;;5074121;28;20024;-73
2021/08/03 12:15:22;;;;;;;1.20;1.05;;;29.80;31.90;;;;;;5092287;28;20074;-73
2021/08/03 12:18:00;;;;;;;1.83;0.90;;;29.90;31.90;;;;;;5092319;28;20042;-73
2021/08/03 12:20:30;;;;;;;1.52;1.27;;;30.00;31.90;;;;;;5092307;28;20016;-73
2021/08/03 12:23:11;;;;;;;5.15;1.50;;;30.10;31.70;;;;;;5092612;28;20039;-72
2021/08/03 12:25:50;;;;;;;2.58;1.42;;;30.10;32.10;;;;;;5091761;28;20067;-72
2021/08/03 12:28:34;;;;;;;1.85;1.23;;;30.20;31.00;;;;;;5092329;28;20009;-73
2021/08/03 12:31:27;;;;;;;1.42;1.10;;;30.20;31.50;;;;;;5053967;28;20028;-72
2021/08/03 12:33:56;;;;;;;2.25;1.42;;;30.10;30.40;;;;;;5089763;28;20431;-73
2021/08/03 12:36:22;;;;;;;1.70;1.45;;;30.10;30.50;;;;;;5095544;28;20066;-73
2021/08/03 12:39:07;;;;;;;1.63;1.15;;;30.10;29.80;;;;;;5096037;28;20015;-74
2021/08/03 12:41:34;;;;;;;2.05;1.10;;;30.10;30.70;;;;;;5096004;28;20028;-73
2021/08/03 12:44:01;;;;;;;1.42;1.13;;;30.20;30.90;;;;;;5095953;28;20020;-73
2021/08/03 12:46:35;;;;;;;1.92;1.30;;;30.30;31.20;;;;;;5095941;28;20031;-73
2021/08/03 12:49:01;;;;;;;2.42;1.50;;;30.50;30.20;;;;;;5095641;28;20013;-73
2021/08/03 12:51:29;;;;;;;2.72;1.17;;;30.70;30.80;;;;;;5095672;28;20028;-73
2021/08/03 12:54:17;;;;;;;2.03;1.67;;;30.80;30.30;;;;;;5095714;28;20024;-73
2021/08/03 12:57:12;;;;;;;2.08;1.42;;;31.00;29.90;;;;;;5075477;28;20539;-72
2021/08/03 12:59:44;;;;;;;2.42;1.48;;;31.10;30.10;;;;;;5062324;28;20040;-72
2021/08/03 13:02:14;;;;;;;6.80;1.13;;;31.20;29.00;;;;;;5075455;28;20021;-74